sensor_id;sensor_type;location;lat;lon;timestamp;P1;durP1;ratioP1;P2;durP2;ratioP2
57057;SDS011;55017;52.848;6.748;2023-03-12T00:00:43;149.18;;;144.18;;
57057;SDS011;55017;52.848;6.748;2023-03-12T00:03:09;144.63;;;139.80;;
57057;SDS011;55017;52.848;6.748;2023-03-12T00:05:36;149.40;;;144.10;;
57057;SDS011;55017;52.848;6.748;2023-03-12T00:08:02;148.02;;;143.23;;
57057;SDS011;55017;52.848;6.748;2023-03-12T00:10:28;152.63;;;145.98;;
57057;SDS011;55017;52.848;6.748;2023-03-12T00:12:54;145.25;;;140.45;;
57057;SDS011;55017;52.848;6.748;2023-03-12T00:15:20;149.40;;;144.05;;
57057;SDS011;55017;52.848;6.748;2023-03-12T00:17:46;145.13;;;140.32;;
57057;SDS011;55017;52.848;6.748;2023-03-12T00:20:12;147.43;;;142.52;;
57057;SDS011;55017;52.848;6.748;2023-03-12T00:22:39;144.73;;;139.82;;
57057;SDS011;55017;52.848;6.748;2023-03-12T00:25:05;148.65;;;143.65;;
57057;SDS011;55017;52.848;6.748;2023-03-12T00:27:32;148.05;;;143.00;;
57057;SDS011;55017;52.848;6.748;2023-03-12T00:29:58;148.13;;;142.90;;
57057;SDS011;55017;52.848;6.748;2023-03-12T00:32:24;149.27;;;143.98;;
57057;SDS011;55017;52.848;6.748;2023-03-12T00:34:50;148.48;;;143.55;;
57057;SDS011;55017;52.848;6.748;2023-03-12T00:37:17;148.95;;;144.05;;
57057;SDS011;55017;52.848;6.748;2023-03-12T00:39:43;148.90;;;143.80;;
57057;SDS011;55017;52.848;6.748;2023-03-12T00:42:09;147.73;;;142.48;;
57057;SDS011;55017;52.848;6.748;2023-03-12T00:44:35;149.40;;;144.30;;
57057;SDS011;55017;52.848;6.748;2023-03-12T00:47:01;148.35;;;143.27;;
57057;SDS011;55017;52.848;6.748;2023-03-12T00:49:27;144.38;;;139.60;;
57057;SDS011;55017;52.848;6.748;2023-03-12T00:51:53;147.52;;;142.52;;
57057;SDS011;55017;52.848;6.748;2023-03-12T00:54:19;150.32;;;144.95;;
57057;SDS011;55017;52.848;6.748;2023-03-12T00:56:45;148.10;;;142.90;;
57057;SDS011;55017;52.848;6.748;2023-03-12T00:59:12;149.02;;;144.02;;
57057;SDS011;55017;52.848;6.748;2023-03-12T01:01:38;149.55;;;144.63;;
57057;SDS011;55017;52.848;6.748;2023-03-12T01:04:04;150.82;;;145.57;;
57057;SDS011;55017;52.848;6.748;2023-03-12T01:06:30;147.02;;;141.93;;
57057;SDS011;55017;52.848;6.748;2023-03-12T01:08:56;148.15;;;143.07;;
57057;SDS011;55017;52.848;6.748;2023-03-12T01:11:22;146.52;;;141.80;;
57057;SDS011;55017;52.848;6.748;2023-03-12T01:13:48;148.38;;;143.18;;
57057;SDS011;55017;52.848;6.748;2023-03-12T01:16:14;148.65;;;143.52;;
57057;SDS011;55017;52.848;6.748;2023-03-12T01:18:40;151.13;;;145.38;;
57057;SDS011;55017;52.848;6.748;2023-03-12T01:21:06;147.93;;;142.85;;
57057;SDS011;55017;52.848;6.748;2023-03-12T01:23:32;151.65;;;146.10;;
57057;SDS011;55017;52.848;6.748;2023-03-12T01:25:58;151.07;;;146.05;;
57057;SDS011;55017;52.848;6.748;2023-03-12T01:28:25;147.73;;;142.63;;
57057;SDS011;55017;52.848;6.748;2023-03-12T01:30:51;151.85;;;146.70;;
57057;SDS011;55017;52.848;6.748;2023-03-12T01:33:17;147.50;;;142.60;;
57057;SDS011;55017;52.848;6.748;2023-03-12T01:35:46;150.10;;;144.40;;
57057;SDS011;55017;52.848;6.748;2023-03-12T01:38:13;152.57;;;147.10;;
57057;SDS011;55017;52.848;6.748;2023-03-12T01:40:40;149.20;;;144.02;;
57057;SDS011;55017;52.848;6.748;2023-03-12T01:43:27;151.98;;;146.85;;
57057;SDS011;55017;52.848;6.748;2023-03-12T01:49:08;148.40;;;143.50;;
57057;SDS011;55017;52.848;6.748;2023-03-12T01:51:29;149.10;;;143.95;;
57057;SDS011;55017;52.848;6.748;2023-03-12T01:53:58;149.68;;;144.30;;
57057;SDS011;55017;52.848;6.748;2023-03-12T01:56:26;148.95;;;143.65;;
57057;SDS011;55017;52.848;6.748;2023-03-12T01:58:53;151.18;;;145.98;;
57057;SDS011;55017;52.848;6.748;2023-03-12T02:01:20;150.65;;;145.35;;
57057;SDS011;55017;52.848;6.748;2023-03-12T02:03:46;149.50;;;144.50;;
57057;SDS011;55017;52.848;6.748;2023-03-12T02:06:16;148.25;;;143.35;;
57057;SDS011;55017;52.848;6.748;2023-03-12T02:08:44;149.73;;;144.73;;
57057;SDS011;55017;52.848;6.748;2023-03-12T02:11:12;151.20;;;145.68;;
57057;SDS011;55017;52.848;6.748;2023-03-12T02:13:38;150.73;;;145.45;;
57057;SDS011;55017;52.848;6.748;2023-03-12T02:16:04;147.43;;;142.25;;
57057;SDS011;55017;52.848;6.748;2023-03-12T02:18:31;150.85;;;145.75;;
57057;SDS011;55017;52.848;6.748;2023-03-12T02:23:41;145.98;;;140.95;;
57057;SDS011;55017;52.848;6.748;2023-03-12T02:26:10;149.00;;;144.00;;
57057;SDS011;55017;52.848;6.748;2023-03-12T02:28:36;151.40;;;146.30;;
57057;SDS011;55017;52.848;6.748;2023-03-12T02:31:08;146.27;;;141.38;;
57057;SDS011;55017;52.848;6.748;2023-03-12T02:33:35;151.67;;;146.57;;
57057;SDS011;55017;52.848;6.748;2023-03-12T02:36:01;144.93;;;139.88;;
57057;SDS011;55017;52.848;6.748;2023-03-12T02:41:22;147.15;;;141.85;;
57057;SDS011;55017;52.848;6.748;2023-03-12T02:43:50;147.52;;;142.63;;
57057;SDS011;55017;52.848;6.748;2023-03-12T02:46:21;145.95;;;141.00;;
57057;SDS011;55017;52.848;6.748;2023-03-12T02:48:47;146.98;;;141.90;;
57057;SDS011;55017;52.848;6.748;2023-03-12T02:51:13;148.85;;;143.65;;
57057;SDS011;55017;52.848;6.748;2023-03-12T02:53:39;146.98;;;141.98;;
57057;SDS011;55017;52.848;6.748;2023-03-12T02:56:05;147.40;;;142.20;;
57057;SDS011;55017;52.848;6.748;2023-03-12T02:58:31;148.18;;;143.10;;
57057;SDS011;55017;52.848;6.748;2023-03-12T03:00:57;148.70;;;143.65;;
57057;SDS011;55017;52.848;6.748;2023-03-12T03:03:23;149.70;;;144.77;;
57057;SDS011;55017;52.848;6.748;2023-03-12T03:05:49;148.40;;;143.40;;
57057;SDS011;55017;52.848;6.748;2023-03-12T03:08:16;145.82;;;140.73;;
57057;SDS011;55017;52.848;6.748;2023-03-12T03:10:42;145.63;;;140.70;;
57057;SDS011;55017;52.848;6.748;2023-03-12T03:13:08;145.95;;;140.85;;
57057;SDS011;55017;52.848;6.748;2023-03-12T03:15:34;144.40;;;139.38;;
57057;SDS011;55017;52.848;6.748;2023-03-12T03:18:00;145.68;;;140.70;;
57057;SDS011;55017;52.848;6.748;2023-03-12T03:20:28;146.80;;;141.63;;
57057;SDS011;55017;52.848;6.748;2023-03-12T03:22:54;146.10;;;141.13;;
57057;SDS011;55017;52.848;6.748;2023-03-12T03:25:20;145.63;;;140.80;;
57057;SDS011;55017;52.848;6.748;2023-03-12T03:27:47;150.20;;;144.70;;
57057;SDS011;55017;52.848;6.748;2023-03-12T03:30:13;148.45;;;143.35;;
57057;SDS011;55017;52.848;6.748;2023-03-12T03:32:40;148.68;;;143.80;;
57057;SDS011;55017;52.848;6.748;2023-03-12T03:35:06;146.65;;;141.55;;
57057;SDS011;55017;52.848;6.748;2023-03-12T03:37:32;146.50;;;141.52;;
57057;SDS011;55017;52.848;6.748;2023-03-12T03:39:59;143.05;;;138.15;;
57057;SDS011;55017;52.848;6.748;2023-03-12T03:42:25;148.15;;;143.25;;
57057;SDS011;55017;52.848;6.748;2023-03-12T03:44:51;147.98;;;142.98;;
57057;SDS011;55017;52.848;6.748;2023-03-12T03:47:17;147.48;;;141.98;;
57057;SDS011;55017;52.848;6.748;2023-03-12T03:49:43;147.13;;;142.05;;
57057;SDS011;55017;52.848;6.748;2023-03-12T03:52:09;147.10;;;141.77;;
57057;SDS011;55017;52.848;6.748;2023-03-12T03:54:35;146.43;;;141.52;;
57057;SDS011;55017;52.848;6.748;2023-03-12T03:57:01;150.13;;;144.63;;
57057;SDS011;55017;52.848;6.748;2023-03-12T03:59:27;148.93;;;143.65;;
57057;SDS011;55017;52.848;6.748;2023-03-12T04:01:53;150.40;;;145.10;;
57057;SDS011;55017;52.848;6.748;2023-03-12T04:04:20;149.13;;;144.02;;
57057;SDS011;55017;52.848;6.748;2023-03-12T04:06:46;146.98;;;142.00;;
57057;SDS011;55017;52.848;6.748;2023-03-12T04:09:12;149.30;;;144.40;;
57057;SDS011;55017;52.848;6.748;2023-03-12T04:11:38;144.02;;;138.93;;
57057;SDS011;55017;52.848;6.748;2023-03-12T04:14:04;149.27;;;144.07;;
57057;SDS011;55017;52.848;6.748;2023-03-12T04:16:30;149.07;;;143.80;;
57057;SDS011;55017;52.848;6.748;2023-03-12T04:18:56;145.43;;;140.35;;
57057;SDS011;55017;52.848;6.748;2023-03-12T04:21:22;145.52;;;140.52;;
57057;SDS011;55017;52.848;6.748;2023-03-12T04:23:48;151.23;;;146.18;;
57057;SDS011;55017;52.848;6.748;2023-03-12T04:26:14;149.93;;;144.82;;
57057;SDS011;55017;52.848;6.748;2023-03-12T04:28:41;142.05;;;137.25;;
57057;SDS011;55017;52.848;6.748;2023-03-12T04:31:07;148.95;;;143.63;;
57057;SDS011;55017;52.848;6.748;2023-03-12T04:33:35;147.98;;;143.05;;
57057;SDS011;55017;52.848;6.748;2023-03-12T04:36:01;145.57;;;140.67;;
57057;SDS011;55017;52.848;6.748;2023-03-12T04:38:27;149.77;;;144.63;;
57057;SDS011;55017;52.848;6.748;2023-03-12T04:41:27;150.90;;;145.68;;
57057;SDS011;55017;52.848;6.748;2023-03-12T04:43:46;149.27;;;144.00;;
57057;SDS011;55017;52.848;6.748;2023-03-12T04:46:12;151.23;;;146.05;;
57057;SDS011;55017;52.848;6.748;2023-03-12T04:48:38;149.95;;;144.68;;
57057;SDS011;55017;52.848;6.748;2023-03-12T04:51:04;148.93;;;143.77;;
57057;SDS011;55017;52.848;6.748;2023-03-12T04:53:30;150.00;;;144.93;;
57057;SDS011;55017;52.848;6.748;2023-03-12T04:55:56;150.07;;;144.77;;
57057;SDS011;55017;52.848;6.748;2023-03-12T04:58:22;148.68;;;143.55;;
57057;SDS011;55017;52.848;6.748;2023-03-12T05:00:48;148.02;;;142.82;;
57057;SDS011;55017;52.848;6.748;2023-03-12T05:03:15;149.95;;;144.82;;
57057;SDS011;55017;52.848;6.748;2023-03-12T05:05:41;148.27;;;143.27;;
57057;SDS011;55017;52.848;6.748;2023-03-12T05:08:07;147.75;;;142.75;;
57057;SDS011;55017;52.848;6.748;2023-03-12T05:10:33;147.10;;;141.98;;
57057;SDS011;55017;52.848;6.748;2023-03-12T05:12:59;149.90;;;144.65;;
57057;SDS011;55017;52.848;6.748;2023-03-12T05:15:25;150.40;;;145.18;;
57057;SDS011;55017;52.848;6.748;2023-03-12T05:17:51;147.35;;;142.38;;
57057;SDS011;55017;52.848;6.748;2023-03-12T05:20:17;148.23;;;143.05;;
57057;SDS011;55017;52.848;6.748;2023-03-12T05:22:43;150.77;;;145.25;;
57057;SDS011;55017;52.848;6.748;2023-03-12T05:25:10;151.23;;;145.80;;
57057;SDS011;55017;52.848;6.748;2023-03-12T05:27:36;150.63;;;145.32;;
57057;SDS011;55017;52.848;6.748;2023-03-12T05:30:02;152.38;;;146.80;;
57057;SDS011;55017;52.848;6.748;2023-03-12T05:32:29;150.70;;;145.40;;
57057;SDS011;55017;52.848;6.748;2023-03-12T05:34:55;152.82;;;147.45;;
57057;SDS011;55017;52.848;6.748;2023-03-12T05:37:21;152.43;;;147.13;;
57057;SDS011;55017;52.848;6.748;2023-03-12T05:39:47;152.00;;;146.48;;
57057;SDS011;55017;52.848;6.748;2023-03-12T05:42:13;150.77;;;145.00;;
57057;SDS011;55017;52.848;6.748;2023-03-12T05:44:39;152.88;;;147.25;;
57057;SDS011;55017;52.848;6.748;2023-03-12T05:47:05;152.52;;;146.98;;
57057;SDS011;55017;52.848;6.748;2023-03-12T05:49:31;153.95;;;148.35;;
57057;SDS011;55017;52.848;6.748;2023-03-12T05:51:57;153.68;;;148.18;;
57057;SDS011;55017;52.848;6.748;2023-03-12T05:54:23;149.75;;;144.30;;
57057;SDS011;55017;52.848;6.748;2023-03-12T05:56:50;146.68;;;141.50;;
57057;SDS011;55017;52.848;6.748;2023-03-12T05:59:16;152.68;;;147.23;;
57057;SDS011;55017;52.848;6.748;2023-03-12T06:01:42;148.43;;;143.18;;
57057;SDS011;55017;52.848;6.748;2023-03-12T06:04:08;152.40;;;146.93;;
57057;SDS011;55017;52.848;6.748;2023-03-12T06:06:34;148.10;;;142.88;;
57057;SDS011;55017;52.848;6.748;2023-03-12T06:09:01;151.77;;;146.35;;
57057;SDS011;55017;52.848;6.748;2023-03-12T06:11:28;150.55;;;145.15;;
57057;SDS011;55017;52.848;6.748;2023-03-12T06:13:55;152.18;;;146.57;;
57057;SDS011;55017;52.848;6.748;2023-03-12T06:16:22;148.73;;;143.52;;
57057;SDS011;55017;52.848;6.748;2023-03-12T06:18:51;153.13;;;147.73;;
57057;SDS011;55017;52.848;6.748;2023-03-12T06:21:18;152.98;;;147.68;;
57057;SDS011;55017;52.848;6.748;2023-03-12T06:23:45;151.90;;;146.60;;
57057;SDS011;55017;52.848;6.748;2023-03-12T06:26:11;151.18;;;145.68;;
57057;SDS011;55017;52.848;6.748;2023-03-12T06:28:38;152.40;;;146.63;;
57057;SDS011;55017;52.848;6.748;2023-03-12T06:31:04;152.68;;;147.02;;
57057;SDS011;55017;52.848;6.748;2023-03-12T06:33:30;150.40;;;145.07;;
57057;SDS011;55017;52.848;6.748;2023-03-12T06:35:57;153.32;;;147.95;;
57057;SDS011;55017;52.848;6.748;2023-03-12T06:38:24;147.63;;;142.32;;
57057;SDS011;55017;52.848;6.748;2023-03-12T06:40:54;148.13;;;142.57;;
57057;SDS011;55017;52.848;6.748;2023-03-12T06:43:20;147.13;;;141.82;;
57057;SDS011;55017;52.848;6.748;2023-03-12T06:45:46;149.60;;;143.95;;
57057;SDS011;55017;52.848;6.748;2023-03-12T06:48:12;148.25;;;142.60;;
57057;SDS011;55017;52.848;6.748;2023-03-12T06:50:38;149.32;;;143.90;;
57057;SDS011;55017;52.848;6.748;2023-03-12T06:53:04;150.93;;;145.38;;
57057;SDS011;55017;52.848;6.748;2023-03-12T06:55:30;153.55;;;148.15;;
57057;SDS011;55017;52.848;6.748;2023-03-12T06:57:56;150.98;;;145.48;;
57057;SDS011;55017;52.848;6.748;2023-03-12T07:00:22;150.13;;;144.27;;
57057;SDS011;55017;52.848;6.748;2023-03-12T07:02:48;150.27;;;144.95;;
57057;SDS011;55017;52.848;6.748;2023-03-12T07:05:14;149.10;;;144.00;;
57057;SDS011;55017;52.848;6.748;2023-03-12T07:07:40;150.75;;;145.35;;
57057;SDS011;55017;52.848;6.748;2023-03-12T07:10:06;150.40;;;144.93;;
57057;SDS011;55017;52.848;6.748;2023-03-12T07:12:32;150.50;;;145.25;;
57057;SDS011;55017;52.848;6.748;2023-03-12T07:14:58;148.43;;;143.32;;
57057;SDS011;55017;52.848;6.748;2023-03-12T07:17:25;147.73;;;142.30;;
57057;SDS011;55017;52.848;6.748;2023-03-12T07:19:51;150.70;;;145.18;;
57057;SDS011;55017;52.848;6.748;2023-03-12T07:22:17;148.65;;;143.40;;
57057;SDS011;55017;52.848;6.748;2023-03-12T07:24:43;149.80;;;144.05;;
57057;SDS011;55017;52.848;6.748;2023-03-12T07:27:09;149.38;;;143.65;;
57057;SDS011;55017;52.848;6.748;2023-03-12T07:29:35;151.32;;;145.95;;
57057;SDS011;55017;52.848;6.748;2023-03-12T07:32:01;147.93;;;142.52;;
57057;SDS011;55017;52.848;6.748;2023-03-12T07:34:27;148.40;;;143.13;;
57057;SDS011;55017;52.848;6.748;2023-03-12T07:36:53;146.98;;;141.77;;
57057;SDS011;55017;52.848;6.748;2023-03-12T07:39:20;152.35;;;146.75;;
57057;SDS011;55017;52.848;6.748;2023-03-12T07:41:46;148.85;;;143.43;;
57057;SDS011;55017;52.848;6.748;2023-03-12T07:44:12;151.55;;;146.05;;
57057;SDS011;55017;52.848;6.748;2023-03-12T07:46:38;153.70;;;147.98;;
57057;SDS011;55017;52.848;6.748;2023-03-12T07:49:04;150.60;;;145.30;;
57057;SDS011;55017;52.848;6.748;2023-03-12T07:51:30;150.73;;;145.10;;
57057;SDS011;55017;52.848;6.748;2023-03-12T07:53:56;150.65;;;144.50;;
57057;SDS011;55017;52.848;6.748;2023-03-12T07:56:22;153.70;;;148.30;;
57057;SDS011;55017;52.848;6.748;2023-03-12T07:58:48;151.75;;;146.05;;
57057;SDS011;55017;52.848;6.748;2023-03-12T08:01:14;150.13;;;144.52;;
57057;SDS011;55017;52.848;6.748;2023-03-12T08:03:40;152.95;;;147.35;;
57057;SDS011;55017;52.848;6.748;2023-03-12T08:06:06;152.82;;;147.15;;
57057;SDS011;55017;52.848;6.748;2023-03-12T08:08:32;155.07;;;149.38;;
57057;SDS011;55017;52.848;6.748;2023-03-12T08:11:00;151.52;;;146.00;;
57057;SDS011;55017;52.848;6.748;2023-03-12T08:13:26;154.52;;;148.55;;
57057;SDS011;55017;52.848;6.748;2023-03-12T08:15:52;153.25;;;147.35;;
57057;SDS011;55017;52.848;6.748;2023-03-12T08:18:18;151.55;;;145.68;;
57057;SDS011;55017;52.848;6.748;2023-03-12T08:20:46;153.27;;;147.35;;
57057;SDS011;55017;52.848;6.748;2023-03-12T08:23:14;153.02;;;147.48;;
57057;SDS011;55017;52.848;6.748;2023-03-12T08:25:40;158.90;;;152.27;;
57057;SDS011;55017;52.848;6.748;2023-03-12T08:28:06;157.18;;;151.07;;
57057;SDS011;55017;52.848;6.748;2023-03-12T08:30:32;152.48;;;146.85;;
57057;SDS011;55017;52.848;6.748;2023-03-12T08:32:58;150.32;;;144.70;;
57057;SDS011;55017;52.848;6.748;2023-03-12T08:35:24;151.15;;;145.70;;
57057;SDS011;55017;52.848;6.748;2023-03-12T08:37:50;153.98;;;148.30;;
57057;SDS011;55017;52.848;6.748;2023-03-12T08:40:16;155.40;;;149.57;;
57057;SDS011;55017;52.848;6.748;2023-03-12T08:42:43;154.32;;;148.30;;
57057;SDS011;55017;52.848;6.748;2023-03-12T08:45:09;150.52;;;144.90;;
57057;SDS011;55017;52.848;6.748;2023-03-12T08:47:36;152.93;;;147.23;;
57057;SDS011;55017;52.848;6.748;2023-03-12T08:50:05;149.75;;;144.30;;
57057;SDS011;55017;52.848;6.748;2023-03-12T08:52:31;149.30;;;143.82;;
57057;SDS011;55017;52.848;6.748;2023-03-12T08:54:57;151.43;;;145.73;;
57057;SDS011;55017;52.848;6.748;2023-03-12T08:57:23;154.63;;;148.60;;
57057;SDS011;55017;52.848;6.748;2023-03-12T08:59:49;151.50;;;145.75;;
57057;SDS011;55017;52.848;6.748;2023-03-12T09:02:15;156.07;;;150.10;;
57057;SDS011;55017;52.848;6.748;2023-03-12T09:04:41;153.75;;;148.05;;
57057;SDS011;55017;52.848;6.748;2023-03-12T09:07:07;148.90;;;143.15;;
57057;SDS011;55017;52.848;6.748;2023-03-12T09:09:33;157.30;;;151.40;;
57057;SDS011;55017;52.848;6.748;2023-03-12T09:11:59;147.88;;;141.95;;
57057;SDS011;55017;52.848;6.748;2023-03-12T09:14:25;151.35;;;145.73;;
57057;SDS011;55017;52.848;6.748;2023-03-12T09:16:51;152.30;;;146.93;;
57057;SDS011;55017;52.848;6.748;2023-03-12T09:19:17;150.43;;;144.77;;
57057;SDS011;55017;52.848;6.748;2023-03-12T09:21:44;151.75;;;146.13;;
57057;SDS011;55017;52.848;6.748;2023-03-12T09:24:10;153.07;;;147.52;;
57057;SDS011;55017;52.848;6.748;2023-03-12T09:26:36;152.07;;;146.13;;
57057;SDS011;55017;52.848;6.748;2023-03-12T09:29:02;154.70;;;149.00;;
57057;SDS011;55017;52.848;6.748;2023-03-12T09:31:28;156.25;;;149.95;;
57057;SDS011;55017;52.848;6.748;2023-03-12T09:33:54;156.65;;;150.70;;
57057;SDS011;55017;52.848;6.748;2023-03-12T09:36:20;155.18;;;149.25;;
57057;SDS011;55017;52.848;6.748;2023-03-12T09:38:46;157.52;;;151.43;;
57057;SDS011;55017;52.848;6.748;2023-03-12T09:41:14;155.05;;;149.02;;
57057;SDS011;55017;52.848;6.748;2023-03-12T09:43:46;182.52;;;172.38;;
57057;SDS011;55017;52.848;6.748;2023-03-12T09:46:14;161.13;;;154.52;;
57057;SDS011;55017;52.848;6.748;2023-03-12T09:48:43;158.68;;;152.57;;
57057;SDS011;55017;52.848;6.748;2023-03-12T09:51:21;158.73;;;152.18;;
57057;SDS011;55017;52.848;6.748;2023-03-12T09:53:50;159.70;;;153.45;;
57057;SDS011;55017;52.848;6.748;2023-03-12T09:56:19;157.65;;;151.45;;
57057;SDS011;55017;52.848;6.748;2023-03-12T09:58:46;162.15;;;155.35;;
57057;SDS011;55017;52.848;6.748;2023-03-12T10:01:27;158.18;;;151.63;;
57057;SDS011;55017;52.848;6.748;2023-03-12T10:04:00;163.82;;;156.85;;
57057;SDS011;55017;52.848;6.748;2023-03-12T10:06:30;161.27;;;154.77;;
57057;SDS011;55017;52.848;6.748;2023-03-12T10:09:17;160.68;;;153.88;;
57057;SDS011;55017;52.848;6.748;2023-03-12T10:11:53;159.70;;;153.15;;
57057;SDS011;55017;52.848;6.748;2023-03-12T10:14:38;156.98;;;150.68;;
57057;SDS011;55017;52.848;6.748;2023-03-12T10:17:18;160.35;;;153.82;;
57057;SDS011;55017;52.848;6.748;2023-03-12T10:22:37;158.43;;;152.23;;
57057;SDS011;55017;52.848;6.748;2023-03-12T10:25:15;158.88;;;152.57;;
57057;SDS011;55017;52.848;6.748;2023-03-12T10:27:46;158.10;;;151.35;;
57057;SDS011;55017;52.848;6.748;2023-03-12T10:30:17;160.30;;;153.90;;
57057;SDS011;55017;52.848;6.748;2023-03-12T10:33:08;160.35;;;153.50;;
57057;SDS011;55017;52.848;6.748;2023-03-12T10:35:30;162.65;;;155.95;;
57057;SDS011;55017;52.848;6.748;2023-03-12T10:37:57;160.85;;;154.48;;
57057;SDS011;55017;52.848;6.748;2023-03-12T10:40:28;157.55;;;151.05;;
57057;SDS011;55017;52.848;6.748;2023-03-12T10:42:54;161.95;;;155.35;;
57057;SDS011;55017;52.848;6.748;2023-03-12T10:47:49;160.98;;;154.40;;
57057;SDS011;55017;52.848;6.748;2023-03-12T10:50:58;161.82;;;155.20;;
57057;SDS011;55017;52.848;6.748;2023-03-12T10:53:22;162.05;;;155.45;;
57057;SDS011;55017;52.848;6.748;2023-03-12T10:56:00;162.45;;;155.85;;
57057;SDS011;55017;52.848;6.748;2023-03-12T10:58:30;159.55;;;153.05;;
57057;SDS011;55017;52.848;6.748;2023-03-12T11:00:58;160.32;;;153.68;;
57057;SDS011;55017;52.848;6.748;2023-03-12T11:03:25;160.57;;;153.70;;
57057;SDS011;55017;52.848;6.748;2023-03-12T11:05:52;159.88;;;153.02;;
57057;SDS011;55017;52.848;6.748;2023-03-12T11:08:26;165.10;;;158.02;;
57057;SDS011;55017;52.848;6.748;2023-03-12T11:10:53;160.27;;;153.85;;
57057;SDS011;55017;52.848;6.748;2023-03-12T11:13:36;158.15;;;151.35;;
57057;SDS011;55017;52.848;6.748;2023-03-12T11:16:20;155.63;;;149.43;;
57057;SDS011;55017;52.848;6.748;2023-03-12T11:21:21;158.10;;;151.70;;
57057;SDS011;55017;52.848;6.748;2023-03-12T11:26:24;160.68;;;154.07;;
57057;SDS011;55017;52.848;6.748;2023-03-12T11:28:51;160.25;;;153.57;;
57057;SDS011;55017;52.848;6.748;2023-03-12T11:31:24;159.82;;;153.10;;
57057;SDS011;55017;52.848;6.748;2023-03-12T11:33:52;158.32;;;151.25;;
57057;SDS011;55017;52.848;6.748;2023-03-12T11:36:44;162.23;;;155.27;;
57057;SDS011;55017;52.848;6.748;2023-03-12T11:39:14;158.40;;;151.68;;
57057;SDS011;55017;52.848;6.748;2023-03-12T12:05:48;157.63;;;151.05;;
57057;SDS011;55017;52.848;6.748;2023-03-12T12:07:47;154.20;;;147.40;;
57057;SDS011;55017;52.848;6.748;2023-03-12T12:10:22;156.60;;;150.05;;
57057;SDS011;55017;52.848;6.748;2023-03-12T12:12:58;156.35;;;149.65;;
57057;SDS011;55017;52.848;6.748;2023-03-12T12:15:48;158.57;;;151.63;;
57057;SDS011;55017;52.848;6.748;2023-03-12T12:31:53;153.68;;;147.27;;
57057;SDS011;55017;52.848;6.748;2023-03-12T12:37:21;160.88;;;153.68;;
57057;SDS011;55017;52.848;6.748;2023-03-12T12:40:13;155.23;;;148.48;;
57057;SDS011;55017;52.848;6.748;2023-03-12T12:42:38;154.80;;;147.65;;
57057;SDS011;55017;52.848;6.748;2023-03-12T12:45:09;154.60;;;148.05;;
57057;SDS011;55017;52.848;6.748;2023-03-12T12:47:39;152.15;;;145.43;;
57057;SDS011;55017;52.848;6.748;2023-03-12T12:50:11;157.93;;;150.93;;
57057;SDS011;55017;52.848;6.748;2023-03-12T12:52:39;155.85;;;149.05;;
57057;SDS011;55017;52.848;6.748;2023-03-12T12:55:15;155.77;;;149.10;;
57057;SDS011;55017;52.848;6.748;2023-03-12T12:57:44;156.80;;;149.73;;
57057;SDS011;55017;52.848;6.748;2023-03-12T13:02:55;152.30;;;145.70;;
57057;SDS011;55017;52.848;6.748;2023-03-12T13:05:26;152.95;;;146.23;;
57057;SDS011;55017;52.848;6.748;2023-03-12T13:07:52;151.82;;;145.15;;
57057;SDS011;55017;52.848;6.748;2023-03-12T13:10:36;154.07;;;147.05;;
57057;SDS011;55017;52.848;6.748;2023-03-12T13:13:07;153.45;;;146.15;;
57057;SDS011;55017;52.848;6.748;2023-03-12T13:15:36;155.65;;;148.15;;
57057;SDS011;55017;52.848;6.748;2023-03-12T13:18:07;155.63;;;148.38;;
57057;SDS011;55017;52.848;6.748;2023-03-12T13:20:36;156.20;;;149.10;;
57057;SDS011;55017;52.848;6.748;2023-03-12T13:23:17;158.05;;;150.65;;
57057;SDS011;55017;52.848;6.748;2023-03-12T13:25:49;158.05;;;148.98;;
57057;SDS011;55017;52.848;6.748;2023-03-12T13:30:50;154.40;;;146.60;;
57057;SDS011;55017;52.848;6.748;2023-03-12T13:33:18;154.07;;;146.75;;
57057;SDS011;55017;52.848;6.748;2023-03-12T13:36:08;151.10;;;143.90;;
57057;SDS011;55017;52.848;6.748;2023-03-12T13:38:37;154.43;;;146.45;;
57057;SDS011;55017;52.848;6.748;2023-03-12T13:41:04;153.02;;;145.52;;
57057;SDS011;55017;52.848;6.748;2023-03-12T13:43:32;155.32;;;146.95;;
57057;SDS011;55017;52.848;6.748;2023-03-12T13:48:43;159.20;;;149.65;;
57057;SDS011;55017;52.848;6.748;2023-03-12T13:51:11;155.82;;;146.82;;
57057;SDS011;55017;52.848;6.748;2023-03-12T13:53:40;155.10;;;146.02;;
57057;SDS011;55017;52.848;6.748;2023-03-12T13:56:08;160.00;;;150.20;;
57057;SDS011;55017;52.848;6.748;2023-03-12T13:58:49;161.80;;;152.23;;
57057;SDS011;55017;52.848;6.748;2023-03-12T14:01:19;155.32;;;145.50;;
57057;SDS011;55017;52.848;6.748;2023-03-12T14:03:51;155.20;;;145.75;;
57057;SDS011;55017;52.848;6.748;2023-03-12T14:06:21;158.02;;;148.70;;
57057;SDS011;55017;52.848;6.748;2023-03-12T14:16:43;160.20;;;149.95;;
57057;SDS011;55017;52.848;6.748;2023-03-12T14:19:11;158.82;;;149.13;;
57057;SDS011;55017;52.848;6.748;2023-03-12T14:21:37;156.13;;;147.65;;
57057;SDS011;55017;52.848;6.748;2023-03-12T14:24:04;157.05;;;147.52;;
57057;SDS011;55017;52.848;6.748;2023-03-12T14:26:32;153.90;;;145.07;;
57057;SDS011;55017;52.848;6.748;2023-03-12T14:29:00;159.00;;;149.52;;
57057;SDS011;55017;52.848;6.748;2023-03-12T14:31:29;154.43;;;145.30;;
57057;SDS011;55017;52.848;6.748;2023-03-12T14:34:11;154.50;;;146.07;;
57057;SDS011;55017;52.848;6.748;2023-03-12T14:36:45;151.48;;;142.75;;
57057;SDS011;55017;52.848;6.748;2023-03-12T14:39:32;152.55;;;142.77;;
57057;SDS011;55017;52.848;6.748;2023-03-12T14:42:00;150.90;;;142.27;;
57057;SDS011;55017;52.848;6.748;2023-03-12T14:44:29;150.40;;;142.05;;
57057;SDS011;55017;52.848;6.748;2023-03-12T14:46:59;150.98;;;143.00;;
57057;SDS011;55017;52.848;6.748;2023-03-12T14:49:26;152.00;;;143.80;;
57057;SDS011;55017;52.848;6.748;2023-03-12T14:51:53;149.23;;;140.98;;
57057;SDS011;55017;52.848;6.748;2023-03-12T14:54:20;154.32;;;145.73;;
57057;SDS011;55017;52.848;6.748;2023-03-12T14:56:48;149.77;;;141.77;;
57057;SDS011;55017;52.848;6.748;2023-03-12T15:01:46;154.13;;;146.20;;
57057;SDS011;55017;52.848;6.748;2023-03-12T15:04:13;151.27;;;143.13;;
57057;SDS011;55017;52.848;6.748;2023-03-12T15:06:43;149.82;;;141.35;;
57057;SDS011;55017;52.848;6.748;2023-03-12T15:09:13;145.75;;;138.32;;
57057;SDS011;55017;52.848;6.748;2023-03-12T15:11:40;148.80;;;140.27;;
57057;SDS011;55017;52.848;6.748;2023-03-12T15:14:07;148.90;;;141.18;;
57057;SDS011;55017;52.848;6.748;2023-03-12T15:16:38;148.68;;;139.75;;
57057;SDS011;55017;52.848;6.748;2023-03-12T15:19:04;146.10;;;138.07;;